Latest Coastal Weather Observations for Sydney Harbour

IDN60701

Issued at 11:22 pm EST Monday 31 August 2015 (issued every 10 minutes, with the page automatically refreshed every 10 minutes)

About coastal observations | Map of coastal stations | Coastal observations for NSW | Marine services | Other Formats
Station Details ID: 066196 Name: WEDDING CAKE WEST Lat: -33.84 Lon: 151.26 Height: 6.0 m
Data from the previous 72 hours. | See also: Recent months at Sydney Harbour
Date/Time
EST
Temp

°C
Wind Pressure Rain
since 9am
mm
Weather Cloud Vis
km
Sea
Height
m
Swell
Dir
 
Speed
knots
Gust
knots
hPa Trend Height
m
Period
s
Dir
31/11:00pm 14.0 WSW 9 11 - - - - - - - - - -
31/10:30pm 13.8 WSW 9 11 - - - - - - - - - -
31/10:00pm 14.2 W 9 10 - - - - - - - - - -
31/09:30pm 14.7 W 9 11 - - - - - - - - - -
31/09:00pm 14.8 W 9 10 - - - - - - - - - -
31/08:30pm 14.8 W 7 8 - - - - - - - - - -
31/08:00pm 15.3 WSW 5 7 - - - - - - - - - -
31/07:30pm 15.4 WSW 5 7 - - - - - - - - - -
31/07:00pm 15.5 SW 5 8 - - - - - - - - - -
31/06:30pm 15.8 SSW 7 9 - - - - - - - - - -
31/06:00pm 15.8 S 7 10 - - - - - - - - - -
31/05:30pm 15.9 S 9 11 - - - - - - - - - -
31/05:00pm 15.8 S 11 14 - - - - - - - - - -
31/04:30pm 16.0 S 11 14 - - - - - - - - - -
31/04:00pm 16.1 S 12 16 - - - - - - - - - -
31/03:30pm 16.1 S 14 17 - - - - - - - - - -
31/03:00pm 16.3 SSE 15 18 - - - - - - - - - -
31/02:30pm 16.1 SSE 14 18 - - - - - - - - - -
31/02:00pm 16.0 SSE 13 17 - - - - - - - - - -
31/01:30pm 15.8 S 12 16 - - - - - - - - - -
31/01:00pm 16.2 SSE 10 13 - - - - - - - - - -
31/12:30pm 15.7 SW 5 7 - - - - - - - - - -
31/12:00pm 15.6 SW 5 6 - - - - - - - - - -
31/11:30am 15.2 W 7 13 - - - - - - - - - -
31/11:00am 14.8 W 6 10 - - - - - - - - - -
31/10:30am 14.3 WSW 7 10 - - - - - - - - - -
31/10:00am 14.4 SW 8 11 - - - - - - - - - -
31/09:30am 13.5 SW 11 15 - - - - - - - - - -
31/09:00am 13.4 SW 11 15 - - - - - - - - - -
31/08:30am 12.7 WSW 11 15 - - - - - - - - - -
31/08:00am 12.6 WSW 12 16 - - - - - - - - - -
31/07:30am 12.1 W 11 15 - - - - - - - - - -
31/07:00am 11.9 W 11 15 - - - - - - - - - -
31/06:30am 11.6 W 11 14 - - - - - - - - - -
31/06:00am 11.7 W 11 15 - - - - - - - - - -
31/05:30am 12.0 W 10 13 - - - - - - - - - -
31/05:00am 12.2 W 10 12 - - - - - - - - - -
31/04:30am 12.3 W 10 13 - - - - - - - - - -
31/04:00am 12.7 WSW 10 14 - - - - - - - - - -
31/03:30am 13.0 WSW 13 16 - - - - - - - - - -
31/03:00am 13.1 SW 12 16 - - - - - - - - - -
31/02:30am 13.3 SW 13 16 - - - - - - - - - -
31/02:00am 13.5 WSW 11 15 - - - - - - - - - -
31/01:30am 13.4 WSW 10 14 - - - - - - - - - -
31/01:00am 13.3 WSW 10 13 - - - - - - - - - -
31/12:30am 13.4 W 11 13 - - - - - - - - - -
31/12:00am 13.6 W 10 14 - - - - - - - - - -
 
Date/Time
EST
Temp

°C
Wind Pressure Rain
since 9am
mm
Weather Cloud Vis
km
Sea
Height
m
Swell
Dir
 
Speed
knots
Gust
knots
hPa Trend Height
m
Period
s
Dir
30/11:30pm 13.6 W 10 14 - - - - - - - - - -
30/11:00pm 14.5 SW 13 16 - - - - - - - - - -
30/10:30pm 14.5 SW 13 16 - - - - - - - - - -
30/10:00pm 14.5 SW 13 15 - - - - - - - - - -
30/09:30pm 14.9 SSW 16 21 - - - - - - - - - -
30/09:00pm 15.3 SSW 15 19 - - - - - - - - - -
30/08:30pm 15.6 SSW 15 19 - - - - - - - - - -
30/08:00pm 15.9 SSW 14 19 - - - - - - - - - -
30/07:30pm 16.0 SSW 12 16 - - - - - - - - - -
30/07:00pm 15.8 SSW 14 16 - - - - - - - - - -
30/06:30pm 15.8 SSW 13 16 - - - - - - - - - -
30/06:00pm 15.5 SSW 13 17 - - - - - - - - - -
30/05:30pm 15.3 S 14 18 - - - - - - - - - -
30/05:00pm 15.4 SSW 18 21 - - - - - - - - - -
30/04:30pm 15.5 S 16 20 - - - - - - - - - -
30/04:00pm 15.7 S 17 23 - - - - - - - - - -
30/03:30pm 15.8 S 16 20 - - - - - - - - - -
30/03:00pm 15.6 S 17 20 - - - - - - - - - -
30/02:30pm 15.6 SSE 17 22 - - - - - - - - - -
30/02:00pm 15.2 S 15 19 - - - - - - - - - -
30/01:30pm 15.0 S 13 18 - - - - - - - - - -
30/01:00pm 15.0 SSW 14 18 - - - - - - - - - -
30/12:30pm 15.0 SSW 13 19 - - - - - - - - - -
30/12:00pm 14.9 SSW 12 16 - - - - - - - - - -
30/11:30am 14.7 SSW 13 16 - - - - - - - - - -
30/11:00am 14.7 S 12 15 - - - - - - - - - -
30/10:30am 14.1 WSW 9 11 - - - - - - - - - -
30/10:00am 12.9 WSW 10 13 - - - - - - - - - -
30/09:30am 12.5 W 10 15 - - - - - - - - - -
30/09:00am 11.6 W 13 17 - - - - - - - - - -
30/08:30am 10.7 W 13 16 - - - - - - - - - -
30/08:00am 10.3 W 15 17 - - - - - - - - - -
30/07:30am 9.9 W 15 18 - - - - - - - - - -
30/07:00am 9.7 W 14 18 - - - - - - - - - -
30/06:30am 9.7 WSW 15 17 - - - - - - - - - -
30/06:00am 10.1 W 14 17 - - - - - - - - - -
30/05:30am 10.1 W 12 15 - - - - - - - - - -
30/05:00am 10.1 WSW 13 15 - - - - - - - - - -
30/04:30am 10.0 WSW 14 17 - - - - - - - - - -
30/04:00am 10.1 WSW 14 17 - - - - - - - - - -
30/03:30am 10.4 WSW 14 18 - - - - - - - - - -
30/03:00am 10.5 WSW 16 22 - - - - - - - - - -
30/02:30am 10.6 WSW 14 18 - - - - - - - - - -
30/02:00am 10.9 W 14 19 - - - - - - - - - -
30/01:30am 11.3 WSW 14 18 - - - - - - - - - -
30/01:00am 11.7 WSW 13 17 - - - - - - - - - -
30/12:30am 12.1 WSW 13 18 - - - - - - - - - -
30/12:00am 12.5 WSW 12 18 - - - - - - - - - -
 
Date/Time
EST
Temp

°C
Wind Pressure Rain
since 9am
mm
Weather Cloud Vis
km
Sea
Height
m
Swell
Dir
 
Speed
knots
Gust
knots
hPa Trend Height
m
Period
s
Dir
29/11:30pm 12.7 WSW 11 15 - - - - - - - - - -
29/11:00pm 13.7 SW 14 16 - - - - - - - - - -
29/10:30pm 14.1 SW 16 20 - - - - - - - - - -
29/10:00pm 14.2 WSW 11 14 - - - - - - - - - -
29/09:30pm 14.7 WSW 10 13 - - - - - - - - - -
29/09:00pm 15.3 SW 10 14 - - - - - - - - - -
29/08:30pm 15.0 WSW 7 9 - - - - - - - - - -
29/08:00pm 14.8 NE 3 5 - - - - - - - - - -
29/07:30pm 15.0 NE 2 3 - - - - - - - - - -
29/07:00pm 14.9 NE 2 4 - - - - - - - - - -
29/06:30pm 14.9 CALM 0 0 - - - - - - - - - -
29/06:00pm 16.0 NE 3 4 - - - - - - - - - -
29/05:30pm 16.1 NE 5 6 - - - - - - - - - -
29/05:00pm 16.2 NE 6 7 - - - - - - - - - -
29/04:30pm 16.3 NE 7 8 - - - - - - - - - -
29/04:00pm 15.9 NNE 9 11 - - - - - - - - - -
29/03:30pm 16.0 NE 8 10 - - - - - - - - - -
29/03:00pm 15.9 NE 9 11 - - - - - - - - - -
29/02:30pm 16.0 NE 8 11 - - - - - - - - - -
29/02:00pm 17.2 WSW 7 9 - - - - - - - - - -
29/01:30pm 16.8 WSW 10 14 - - - - - - - - - -
29/01:00pm 16.5 WSW 10 14 - - - - - - - - - -
29/12:30pm 16.1 WSW 13 16 - - - - - - - - - -
29/12:00pm 15.7 SW 9 12 - - - - - - - - - -
29/11:30am 15.2 SW 8 10 - - - - - - - - - -
29/11:00am 14.7 SW 7 9 - - - - - - - - - -
29/10:30am 14.3 SW 7 9 - - - - - - - - - -
29/10:00am 14.1 WSW 8 10 - - - - - - - - - -
29/09:30am 13.4 WSW 9 11 - - - - - - - - - -
29/09:00am 12.7 WSW 9 11 - - - - - - - - - -
29/08:30am 12.9 WSW 8 11 - - - - - - - - - -
29/08:00am 12.7 W 6 8 - - - - - - - - - -
29/07:30am 12.5 W 7 8 - - - - - - - - - -
29/07:00am 11.4 WSW 6 8 - - - - - - - - - -
29/06:30am 11.0 W 7 9 - - - - - - - - - -
29/06:00am 11.3 W 7 9 - - - - - - - - - -
29/05:30am 11.2 W 7 9 - - - - - - - - - -
29/05:00am 11.6 W 8 10 - - - - - - - - - -
29/04:30am 11.5 WSW 10 12 - - - - - - - - - -
29/04:00am 11.8 WSW 10 12 - - - - - - - - - -
29/03:30am 12.0 W 9 11 - - - - - - - - - -
29/03:00am 12.3 W 10 12 - - - - - - - - - -
29/02:30am 12.8 WSW 9 11 - - - - - - - - - -
29/02:00am 13.1 WSW 8 10 - - - - - - - - - -
29/01:30am 13.2 W 9 11 - - - - - - - - - -
29/01:00am 13.1 W 8 8 - - - - - - - - - -
29/12:30am 13.7 WSW 8 10 - - - - - - - - - -
29/12:00am 14.4 WSW 6 9 - - - - - - - - - -
 
Date/Time
EST
Temp

°C
Wind Pressure Rain
since 9am
mm
Weather Cloud Vis
km
Sea
Height
m
Swell
Dir
 
Speed
knots
Gust
knots
hPa Trend Height
m
Period
s
Dir
28/11:30pm 14.2 WSW 7 10 - - - - - - - - - -

Other Formats:

Comma delimited format used in spreadsheet applications
http://www.bom.gov.au/fwo/IDN60701/IDN60701.95766.axf

JavaScript Object Notation format (JSON) in row-major order
http://www.bom.gov.au/fwo/IDN60701/IDN60701.95766.json